createdAt,value
2019-03-10T00:01:00.410Z,78.51
2019-03-10T00:05:56.429Z,78.37
2019-03-10T00:10:52.412Z,78.36
2019-03-10T00:15:48.323Z,77.82
2019-03-10T00:20:44.347Z,77.34
2019-03-10T00:25:40.270Z,76.00
2019-03-10T00:30:36.180Z,75.55
2019-03-10T00:35:32.200Z,75.15
2019-03-10T00:41:05.842Z,74.95
2019-03-10T00:46:17.636Z,74.83
2019-03-10T00:51:29.850Z,75.18
2019-03-10T00:56:25.971Z,74.45
2019-03-10T01:01:21.890Z,74.30
2019-03-10T01:06:17.803Z,74.17
2019-03-10T01:11:13.815Z,74.07
2019-03-10T01:16:09.918Z,74.35
2019-03-10T01:21:06.235Z,74.49
2019-03-10T01:26:02.220Z,73.93
2019-03-10T01:31:07.958Z,74.12
2019-03-10T01:36:07.850Z,74.25
2019-03-10T01:41:03.788Z,74.34
2019-03-10T01:45:59.704Z,74.33
2019-03-10T01:50:55.622Z,74.36
2019-03-10T01:55:51.545Z,74.46
2019-03-10T02:00:47.683Z,74.18
2019-03-10T02:05:43.649Z,74.84
2019-03-10T02:10:39.668Z,74.57
2019-03-10T02:15:35.591Z,74.96
2019-03-10T02:20:31.611Z,74.98
2019-03-10T02:25:27.532Z,75.08
2019-03-10T02:30:23.540Z,74.98
2019-03-10T02:35:19.455Z,75.01
2019-03-10T02:40:15.402Z,74.63
2019-03-10T02:45:11.456Z,74.43
2019-03-10T02:50:08.977Z,74.00
2019-03-10T02:55:06.999Z,73.49
2019-03-10T03:00:08.568Z,73.79
2019-03-10T03:05:06.495Z,73.43
2019-03-10T03:10:04.517Z,73.83
2019-03-10T03:15:00.494Z,73.30
2019-03-10T03:19:56.493Z,73.80
2019-03-10T03:24:52.460Z,73.43
2019-03-10T03:29:48.453Z,73.40
2019-03-10T03:34:44.484Z,73.57
2019-03-10T03:39:40.506Z,73.88
2019-03-10T03:44:36.555Z,74.06
2019-03-10T03:49:32.493Z,73.81
2019-03-10T03:54:28.410Z,73.69
2019-03-10T03:59:24.370Z,74.13
2019-03-10T04:04:20.308Z,74.31
2019-03-10T04:09:16.318Z,72.90
2019-03-10T04:14:12.254Z,71.32
2019-03-10T04:19:08.170Z,72.38
2019-03-10T04:24:04.096Z,73.69
2019-03-10T04:29:00.061Z,74.70
2019-03-10T04:33:55.978Z,74.92
2019-03-10T04:38:51.917Z,75.29
2019-03-10T04:43:47.805Z,76.65
2019-03-10T04:48:43.735Z,77.08
2019-03-10T04:53:39.677Z,77.59
2019-03-10T04:58:37.581Z,78.63
2019-03-10T05:03:33.505Z,79.49
2019-03-10T05:08:29.422Z,79.60
2019-03-10T05:13:26.826Z,81.04
2019-03-10T05:18:22.744Z,82.31
2019-03-10T05:23:35.960Z,83.07
2019-03-10T05:28:34.888Z,82.87
2019-03-10T05:33:30.798Z,83.53
2019-03-10T05:38:26.740Z,83.88
2019-03-10T05:43:22.665Z,84.17
2019-03-10T05:48:18.594Z,84.52
2019-03-10T05:53:14.506Z,85.07
2019-03-10T05:58:10.482Z,85.03
2019-03-10T06:03:06.445Z,86.22
2019-03-10T06:08:02.470Z,87.17
2019-03-10T06:12:58.413Z,87.80
2019-03-10T06:17:54.505Z,88.36
2019-03-10T06:22:50.418Z,88.74
2019-03-10T06:27:47.048Z,89.02
2019-03-10T06:32:43.034Z,89.25
2019-03-10T06:37:38.966Z,89.51
2019-03-10T06:42:34.924Z,89.68
2019-03-10T06:47:30.844Z,89.71
2019-03-10T06:52:26.761Z,89.66
2019-03-10T06:57:25.854Z,89.58
2019-03-10T07:02:21.773Z,89.60
2019-03-10T07:07:17.720Z,89.37
2019-03-10T07:12:13.716Z,89.33
2019-03-10T07:17:09.660Z,89.67
2019-03-10T07:22:05.570Z,89.37
2019-03-10T07:27:10.713Z,89.58
2019-03-10T07:32:11.504Z,88.62
2019-03-10T07:37:25.951Z,89.20
2019-03-10T07:42:41.943Z,89.19
2019-03-10T07:47:39.867Z,89.04
2019-03-10T07:52:54.036Z,89.23
2019-03-10T07:58:00.961Z,89.18
2019-03-10T08:03:01.817Z,89.59
2019-03-10T08:08:05.852Z,88.79
2019-03-10T08:18:23.441Z,88.25
2019-03-10T08:23:30.454Z,87.94
2019-03-10T08:28:31.042Z,87.42
2019-03-10T08:33:45.932Z,87.25
2019-03-10T08:38:55.852Z,87.21
2019-03-10T08:43:54.685Z,86.87
2019-03-10T08:48:52.506Z,87.14
2019-03-10T08:53:53.385Z,87.51
2019-03-10T08:59:07.892Z,86.81
2019-03-10T09:04:21.145Z,86.15
2019-03-10T09:09:26.282Z,86.78
2019-03-10T09:14:24.104Z,86.80
2019-03-10T09:19:21.929Z,86.16
2019-03-10T09:24:22.303Z,85.95
2019-03-10T09:29:36.696Z,85.97
2019-03-10T09:34:34.538Z,86.12
2019-03-10T09:39:32.374Z,86.34
2019-03-10T09:44:36.489Z,86.01
2019-03-10T09:49:48.117Z,86.40
2019-03-10T09:54:57.560Z,86.37
2019-03-10T09:59:56.440Z,86.90
2019-03-10T10:04:54.418Z,86.30
2019-03-10T10:10:08.779Z,86.29
2019-03-10T10:15:10.199Z,86.97
2019-03-10T10:20:23.110Z,86.16
2019-03-10T10:25:20.963Z,86.54
2019-03-10T10:30:21.805Z,86.66
2019-03-10T10:35:25.690Z,87.37
2019-03-10T10:40:29.573Z,86.88
2019-03-10T10:45:30.238Z,87.05
2019-03-10T10:50:45.125Z,86.94
2019-03-10T10:55:45.953Z,86.30
2019-03-10T11:01:02.165Z,90.37
2019-03-10T11:06:00.038Z,90.37
2019-03-10T11:11:14.410Z,89.20
2019-03-10T11:16:24.060Z,87.50
2019-03-10T11:21:36.947Z,87.96
2019-03-10T11:26:38.354Z,87.89
2019-03-10T11:31:36.295Z,87.09
2019-03-10T11:36:34.172Z,87.77
2019-03-10T11:41:43.731Z,87.05
2019-03-10T11:46:41.545Z,86.19
2019-03-10T11:51:55.755Z,85.75
2019-03-10T11:57:05.780Z,85.82
2019-03-10T12:02:03.622Z,85.74
2019-03-10T12:07:01.438Z,85.95
2019-03-10T12:11:57.356Z,86.08
2019-03-10T12:16:53.270Z,85.56
2019-03-10T12:21:49.277Z,85.44
2019-03-10T12:26:45.226Z,85.41
2019-03-10T12:31:41.112Z,85.95
2019-03-10T12:36:37.821Z,85.97
2019-03-10T12:41:33.876Z,85.99
2019-03-10T12:46:29.866Z,86.30
2019-03-10T12:51:25.770Z,87.16
2019-03-10T12:56:21.734Z,86.14
2019-03-10T13:01:17.691Z,87.25
2019-03-10T13:06:13.602Z,87.00
2019-03-10T13:11:10.764Z,87.25
2019-03-10T13:16:06.789Z,86.62
2019-03-10T13:21:04.135Z,87.12
2019-03-10T13:26:00.305Z,86.97
2019-03-10T13:30:56.220Z,86.93
2019-03-10T13:35:52.181Z,88.91
2019-03-10T13:40:48.970Z,90.01
2019-03-10T13:45:45.528Z,90.43
2019-03-10T13:50:42.461Z,89.35
2019-03-10T13:55:39.206Z,90.26
2019-03-10T14:00:35.317Z,90.34
2019-03-10T14:05:31.814Z,89.85
2019-03-10T14:10:27.851Z,89.65
2019-03-10T14:15:26.262Z,90.65
2019-03-10T14:20:22.300Z,90.68
2019-03-10T14:25:18.733Z,91.92
2019-03-10T14:30:17.574Z,92.97
2019-03-10T14:35:14.925Z,92.07
2019-03-10T14:40:16.724Z,91.62
2019-03-10T14:45:15.196Z,89.10
2019-03-10T14:50:13.514Z,88.01
2019-03-10T14:55:12.559Z,86.80
2019-03-10T15:00:12.983Z,83.31
2019-03-10T15:05:09.427Z,77.84
2019-03-10T15:10:08.145Z,75.94
2019-03-10T15:15:07.654Z,73.69
2019-03-10T15:20:06.117Z,75.60
2019-03-10T15:25:03.802Z,76.77
2019-03-10T15:29:59.978Z,78.03
2019-03-10T15:34:55.893Z,78.51
2019-03-10T15:39:51.822Z,78.94
2019-03-10T15:44:47.758Z,80.00
2019-03-10T15:49:43.668Z,81.30
2019-03-10T15:54:39.577Z,79.54
2019-03-10T15:59:36.523Z,79.25
2019-03-10T16:04:32.637Z,79.92
2019-03-10T16:09:28.538Z,79.72
2019-03-10T16:14:24.460Z,80.64
2019-03-10T16:19:20.490Z,80.68
2019-03-10T16:24:16.418Z,79.23
2019-03-10T16:29:12.321Z,78.83
2019-03-10T16:34:08.245Z,79.05
2019-03-10T16:39:06.067Z,80.15
2019-03-10T16:44:11.092Z,80.59
2019-03-10T16:49:07.387Z,85.40
2019-03-10T16:54:03.665Z,87.62
2019-03-10T16:59:01.323Z,88.51
2019-03-10T17:04:07.076Z,89.69
2019-03-10T17:09:15.077Z,90.31
2019-03-10T17:14:11.178Z,90.39
2019-03-10T17:19:09.591Z,91.51
2019-03-10T17:24:05.858Z,92.32
2019-03-10T17:29:03.160Z,92.90
2019-03-10T17:34:02.973Z,93.67
2019-03-10T17:38:58.992Z,93.66
2019-03-10T17:43:57.997Z,93.80
2019-03-10T17:49:00.194Z,94.04
2019-03-10T17:53:58.837Z,94.05
2019-03-10T17:58:55.791Z,94.28
2019-03-10T18:03:51.891Z,94.40
2019-03-10T18:08:47.801Z,94.71
2019-03-10T18:13:46.115Z,94.72
2019-03-10T18:18:42.147Z,94.92
2019-03-10T18:23:38.141Z,95.03
2019-03-10T18:28:36.427Z,94.99
2019-03-10T18:33:32.558Z,95.00
2019-03-10T18:38:28.466Z,95.11
2019-03-10T18:43:25.245Z,95.09
2019-03-10T18:48:21.299Z,95.06
2019-03-10T18:53:17.273Z,95.08
2019-03-10T18:58:14.111Z,94.97
2019-03-10T19:03:10.017Z,94.92
2019-03-10T19:08:05.942Z,94.96
2019-03-10T19:13:01.967Z,94.98
2019-03-10T19:17:57.874Z,95.13
2019-03-10T19:22:54.370Z,95.02
2019-03-10T19:27:54.794Z,94.93
2019-03-10T19:32:50.936Z,94.76
2019-03-10T19:37:46.829Z,94.86
2019-03-10T19:42:42.894Z,94.92
2019-03-10T19:47:38.806Z,95.00
2019-03-10T19:52:34.777Z,94.88
2019-03-10T19:57:36.108Z,94.56
2019-03-10T20:02:32.190Z,94.75
2019-03-10T20:07:28.104Z,94.79
2019-03-10T20:12:24.116Z,94.65
2019-03-10T20:17:20.043Z,94.68
2019-03-10T20:22:16.012Z,94.64
2019-03-10T20:27:11.950Z,94.86
2019-03-10T20:32:13.872Z,94.75
2019-03-10T20:37:05.763Z,94.76
2019-03-10T20:42:05.384Z,94.89
2019-03-10T20:46:59.586Z,95.11
2019-03-10T20:51:55.488Z,95.00
2019-03-10T20:56:51.425Z,94.98
2019-03-10T21:01:47.487Z,94.94
2019-03-10T21:06:43.419Z,94.69
2019-03-10T21:11:40.588Z,94.34
2019-03-10T21:16:36.618Z,93.88
2019-03-10T21:21:32.526Z,93.26
2019-03-10T21:26:28.442Z,93.04
2019-03-10T21:31:24.450Z,92.48
2019-03-10T21:36:20.388Z,92.36
2019-03-10T21:41:16.345Z,91.83
2019-03-10T21:46:12.255Z,91.72
2019-03-10T21:51:08.207Z,91.50
2019-03-10T21:56:04.338Z,91.36
2019-03-10T22:01:00.241Z,91.50
2019-03-10T22:05:56.367Z,91.43
2019-03-10T22:10:52.310Z,91.14
2019-03-10T22:15:48.219Z,91.19
2019-03-10T22:20:44.122Z,90.52
2019-03-10T22:25:40.029Z,90.38
2019-03-10T22:30:35.961Z,90.27
2019-03-10T22:35:31.865Z,90.21
2019-03-10T22:40:27.798Z,89.75
2019-03-10T22:45:23.731Z,89.75
2019-03-10T22:50:19.717Z,88.34
2019-03-10T22:55:15.708Z,87.80
2019-03-10T23:00:44.097Z,88.29
2019-03-10T23:05:41.564Z,88.53
2019-03-10T23:10:37.832Z,89.01
2019-03-10T23:15:33.717Z,89.45
2019-03-10T23:20:29.625Z,89.22
2019-03-10T23:25:25.548Z,89.13
2019-03-10T23:30:21.449Z,88.68
2019-03-10T23:35:17.356Z,89.03
2019-03-10T23:40:18.060Z,89.29
2019-03-10T23:45:17.648Z,89.08
2019-03-10T23:50:17.473Z,88.30
2019-03-10T23:55:13.593Z,88.50
